createdAt,value
2018-05-24T00:00:32.372Z,0.00
2018-05-24T00:01:32.342Z,0.00
2018-05-24T00:02:32.320Z,0.00
2018-05-24T00:03:32.281Z,0.00
2018-05-24T00:04:32.256Z,0.00
2018-05-24T00:05:32.215Z,0.00
2018-05-24T00:06:32.182Z,0.00
2018-05-24T00:07:32.146Z,0.00
2018-05-24T00:08:32.117Z,0.00
2018-05-24T00:09:32.083Z,0.00
2018-05-24T00:10:32.054Z,0.00
2018-05-24T00:11:32.028Z,0.00
2018-05-24T00:12:31.986Z,0.00
2018-05-24T00:13:31.958Z,0.00
2018-05-24T00:14:31.926Z,0.00
2018-05-24T00:15:31.893Z,0.00
2018-05-24T00:16:31.861Z,0.00
2018-05-24T00:17:31.827Z,0.00
2018-05-24T00:18:31.791Z,0.00
2018-05-24T00:19:31.770Z,0.00
2018-05-24T00:20:31.726Z,0.00
2018-05-24T00:21:31.696Z,0.00
2018-05-24T00:22:31.666Z,0.00
2018-05-24T00:23:31.634Z,0.00
2018-05-24T00:24:31.605Z,0.00
2018-05-24T00:25:31.568Z,0.00
2018-05-24T00:26:31.532Z,0.00
2018-05-24T00:27:31.501Z,0.00
2018-05-24T00:28:31.474Z,0.00
2018-05-24T00:29:31.441Z,0.00
2018-05-24T00:30:31.407Z,0.00
2018-05-24T00:31:31.369Z,0.00
2018-05-24T00:32:31.341Z,0.00
2018-05-24T00:33:31.307Z,0.00
2018-05-24T00:34:31.278Z,0.00
2018-05-24T00:35:31.245Z,0.00
2018-05-24T00:36:31.212Z,0.00
2018-05-24T00:37:31.181Z,0.00
2018-05-24T00:38:31.145Z,0.00
2018-05-24T00:39:31.111Z,0.00
2018-05-24T00:40:31.081Z,0.00
2018-05-24T00:41:31.047Z,0.00
2018-05-24T00:42:31.017Z,0.00
2018-05-24T00:43:30.986Z,0.00
2018-05-24T00:44:30.946Z,0.00
2018-05-24T00:45:30.918Z,0.00
2018-05-24T00:46:30.889Z,0.00
2018-05-24T00:47:30.863Z,0.00
2018-05-24T00:48:30.837Z,0.00
2018-05-24T00:49:30.792Z,0.00
2018-05-24T00:50:30.755Z,0.00
2018-05-24T00:51:30.724Z,0.00
2018-05-24T00:52:30.688Z,0.00
2018-05-24T00:53:30.666Z,0.00
2018-05-24T00:54:30.629Z,0.00
2018-05-24T00:55:30.602Z,0.00
2018-05-24T00:56:30.569Z,0.00
2018-05-24T00:57:30.531Z,0.00
2018-05-24T00:58:30.507Z,0.00
2018-05-24T00:59:30.462Z,0.00
2018-05-24T01:00:30.441Z,0.00
2018-05-24T01:01:30.407Z,0.00
2018-05-24T01:02:30.369Z,0.00
2018-05-24T01:03:30.337Z,0.00
2018-05-24T01:04:30.301Z,0.00
2018-05-24T01:05:30.271Z,0.00
2018-05-24T01:06:30.240Z,0.00
2018-05-24T01:07:30.210Z,0.00
2018-05-24T01:08:30.181Z,0.00
2018-05-24T01:09:30.142Z,0.00
2018-05-24T01:10:30.107Z,0.00
2018-05-24T01:11:30.076Z,0.00
2018-05-24T01:12:30.044Z,0.00
2018-05-24T01:13:30.034Z,0.00
2018-05-24T01:14:29.982Z,0.00
2018-05-24T01:15:29.952Z,0.00
2018-05-24T01:16:29.910Z,0.00
2018-05-24T01:17:29.879Z,0.00
2018-05-24T01:18:29.847Z,0.00
2018-05-24T01:19:29.821Z,0.00
2018-05-24T01:20:29.788Z,0.00
2018-05-24T01:21:29.752Z,0.00
2018-05-24T01:22:29.717Z,0.00
2018-05-24T01:23:29.686Z,0.00
2018-05-24T01:24:29.651Z,0.00
2018-05-24T01:25:29.620Z,0.00
2018-05-24T01:26:29.590Z,0.00
2018-05-24T01:27:29.557Z,0.00
2018-05-24T01:28:29.530Z,0.00
2018-05-24T01:29:29.492Z,0.00
2018-05-24T01:30:29.455Z,0.00
2018-05-24T01:31:29.425Z,0.00
2018-05-24T01:32:29.398Z,0.00
2018-05-24T01:33:29.365Z,0.00
2018-05-24T01:34:29.328Z,0.00
2018-05-24T01:35:29.298Z,0.00
2018-05-24T01:36:29.261Z,0.00
2018-05-24T01:37:29.232Z,0.00
2018-05-24T01:38:29.199Z,0.00
2018-05-24T01:39:29.167Z,0.00
2018-05-24T01:40:29.134Z,0.00
2018-05-24T01:41:29.101Z,0.00
2018-05-24T01:42:29.065Z,0.00
2018-05-24T01:43:29.032Z,0.00
2018-05-24T01:44:29.000Z,0.00
2018-05-24T01:45:28.968Z,0.00
2018-05-24T01:46:28.941Z,0.00
2018-05-24T01:47:28.906Z,0.00
2018-05-24T01:48:28.870Z,0.00
2018-05-24T01:49:28.843Z,0.00
2018-05-24T01:50:28.821Z,0.00
2018-05-24T01:51:28.782Z,0.00
2018-05-24T01:52:28.744Z,0.00
2018-05-24T01:53:28.712Z,0.00
2018-05-24T01:54:28.675Z,0.00
2018-05-24T01:55:28.643Z,0.00
2018-05-24T01:56:28.609Z,0.00
2018-05-24T01:57:28.574Z,0.00
2018-05-24T01:58:28.545Z,0.00
2018-05-24T01:59:28.515Z,0.00
2018-05-24T02:00:28.482Z,0.00
2018-05-24T02:01:28.446Z,0.00
2018-05-24T02:02:28.413Z,0.00
2018-05-24T02:03:28.385Z,0.00
2018-05-24T02:04:28.351Z,0.00
2018-05-24T02:05:28.318Z,0.00
2018-05-24T02:06:28.282Z,0.00
2018-05-24T02:07:28.261Z,0.00
2018-05-24T02:08:28.218Z,0.00
2018-05-24T02:09:28.186Z,0.00
2018-05-24T02:10:28.153Z,0.00
2018-05-24T02:11:28.123Z,0.00
2018-05-24T02:12:28.088Z,0.00
2018-05-24T02:13:28.054Z,0.00
2018-05-24T02:14:28.019Z,0.00
2018-05-24T02:15:27.988Z,0.00
2018-05-24T02:16:27.954Z,0.00
2018-05-24T02:17:27.921Z,0.00
2018-05-24T02:18:27.891Z,0.00
2018-05-24T02:19:27.861Z,0.00
2018-05-24T02:20:27.823Z,0.00
2018-05-24T02:21:27.788Z,0.00
2018-05-24T02:22:27.760Z,0.00
2018-05-24T02:23:27.727Z,0.00
2018-05-24T02:24:27.694Z,0.00
2018-05-24T02:25:27.659Z,0.00
2018-05-24T02:26:27.624Z,0.00
2018-05-24T02:27:27.594Z,0.00
2018-05-24T02:28:27.556Z,0.00
2018-05-24T02:29:27.527Z,0.00
2018-05-24T02:30:27.495Z,0.00
2018-05-24T02:31:27.462Z,0.00
2018-05-24T02:32:27.433Z,0.00
2018-05-24T02:33:27.395Z,0.00
2018-05-24T02:34:27.361Z,0.00
2018-05-24T02:35:27.328Z,0.00
2018-05-24T02:36:27.298Z,0.00
2018-05-24T02:37:27.276Z,0.00
2018-05-24T02:38:27.229Z,0.00
2018-05-24T02:39:27.193Z,0.00
2018-05-24T02:40:27.160Z,0.00
2018-05-24T02:41:27.129Z,0.00
2018-05-24T02:42:27.102Z,0.00
2018-05-24T02:43:27.066Z,0.00
2018-05-24T02:44:27.033Z,0.00
2018-05-24T02:45:27.002Z,0.00
2018-05-24T02:46:26.961Z,0.00
2018-05-24T02:47:26.931Z,0.00
2018-05-24T02:48:26.895Z,0.00
2018-05-24T02:49:26.862Z,0.00
2018-05-24T02:50:26.836Z,0.00
2018-05-24T02:51:26.798Z,0.00
2018-05-24T02:52:26.767Z,0.00
2018-05-24T02:53:26.737Z,0.00
2018-05-24T02:54:26.700Z,0.00
2018-05-24T02:55:26.667Z,0.00
2018-05-24T02:56:26.631Z,0.00
2018-05-24T02:57:26.601Z,4.00
2018-05-24T02:58:26.559Z,4.00
2018-05-24T02:59:26.534Z,0.00
2018-05-24T03:00:26.500Z,0.00
2018-05-24T03:01:26.510Z,0.00
2018-05-24T03:02:26.435Z,4.00
2018-05-24T03:03:26.448Z,4.00
2018-05-24T03:04:26.418Z,0.00
2018-05-24T03:05:26.338Z,4.00
2018-05-24T03:06:26.292Z,4.00
2018-05-24T03:07:26.265Z,8.00
2018-05-24T03:08:26.233Z,4.00
2018-05-24T03:09:26.199Z,8.00
2018-05-24T03:10:26.164Z,4.00
2018-05-24T03:11:26.130Z,8.00
2018-05-24T03:12:26.099Z,8.00
2018-05-24T03:13:26.060Z,8.00
2018-05-24T03:14:26.076Z,8.00
2018-05-24T03:15:26.004Z,12.00
2018-05-24T03:16:25.966Z,12.00
2018-05-24T03:17:25.934Z,16.00
2018-05-24T03:18:25.907Z,16.00
2018-05-24T03:19:25.862Z,16.00
2018-05-24T03:20:25.828Z,20.00
2018-05-24T03:21:25.793Z,24.00
2018-05-24T03:22:25.766Z,24.00
2018-05-24T03:23:25.733Z,24.00
2018-05-24T03:24:25.694Z,28.00
2018-05-24T03:25:25.664Z,32.00
2018-05-24T03:26:25.630Z,36.00
2018-05-24T03:27:25.594Z,36.00
2018-05-24T03:28:25.565Z,40.00
2018-05-24T03:29:25.532Z,40.00
2018-05-24T03:30:25.490Z,44.00
2018-05-24T03:31:25.459Z,48.00
2018-05-24T03:32:25.434Z,52.00
2018-05-24T03:33:25.396Z,52.00
2018-05-24T03:34:25.363Z,56.00
2018-05-24T03:35:25.338Z,60.00
2018-05-24T03:36:25.297Z,64.00
2018-05-24T03:37:25.260Z,68.00
2018-05-24T03:38:25.221Z,72.00
2018-05-24T03:39:25.191Z,76.00
2018-05-24T03:40:25.164Z,80.00
2018-05-24T03:41:25.126Z,80.00
2018-05-24T03:42:25.094Z,88.00
2018-05-24T03:43:25.054Z,92.00
2018-05-24T03:44:25.023Z,96.00
2018-05-24T03:45:24.984Z,104.00
2018-05-24T03:46:24.957Z,104.00
2018-05-24T03:47:24.924Z,112.00
2018-05-24T03:48:24.889Z,116.00
2018-05-24T03:49:24.861Z,120.00
2018-05-24T03:50:24.818Z,128.00
2018-05-24T03:51:24.789Z,132.00
2018-05-24T03:52:24.755Z,136.00
2018-05-24T03:53:24.728Z,144.00
2018-05-24T03:54:24.694Z,148.00
2018-05-24T03:55:24.653Z,152.00
2018-05-24T03:56:24.620Z,160.00
2018-05-24T03:57:24.580Z,168.00
2018-05-24T03:58:24.564Z,172.00
2018-05-24T03:59:24.519Z,176.00
2018-05-24T04:00:24.484Z,184.00
2018-05-24T04:01:24.454Z,192.00
2018-05-24T04:02:24.416Z,196.00
2018-05-24T04:03:24.381Z,208.00
2018-05-24T04:04:24.352Z,216.00
2018-05-24T04:05:24.310Z,224.00
2018-05-24T04:06:24.290Z,236.00
2018-05-24T04:07:24.249Z,252.00
2018-05-24T04:08:24.221Z,272.00
2018-05-24T04:09:24.184Z,292.00
2018-05-24T04:10:24.147Z,304.00
2018-05-24T04:11:24.112Z,324.00
2018-05-24T04:12:24.081Z,344.00
2018-05-24T04:13:24.049Z,352.00
2018-05-24T04:14:24.010Z,368.00
2018-05-24T04:15:24.013Z,384.00
2018-05-24T04:16:23.943Z,400.00
2018-05-24T04:17:23.907Z,416.00
2018-05-24T04:18:23.879Z,440.00
2018-05-24T04:19:23.843Z,468.00
2018-05-24T04:20:23.810Z,496.00
2018-05-24T04:21:23.778Z,532.00
2018-05-24T04:22:23.739Z,576.00
2018-05-24T04:23:23.707Z,620.00
2018-05-24T04:24:23.675Z,676.00
2018-05-24T04:25:23.638Z,736.00
2018-05-24T04:26:23.613Z,808.00
2018-05-24T04:27:23.573Z,868.00
2018-05-24T04:28:23.545Z,924.00
2018-05-24T04:29:23.502Z,960.00
2018-05-24T04:30:23.473Z,1020.00
2018-05-24T04:31:23.439Z,1076.00
2018-05-24T04:32:23.407Z,1096.00
2018-05-24T04:33:23.373Z,1144.00
2018-05-24T04:34:23.334Z,1240.00
2018-05-24T04:35:23.301Z,1272.00
2018-05-24T04:36:23.272Z,1256.00
2018-05-24T04:37:23.232Z,1252.00
2018-05-24T04:38:23.209Z,1244.00
2018-05-24T04:39:23.169Z,1256.00
2018-05-24T04:40:23.136Z,1240.00
2018-05-24T04:41:23.112Z,1244.00
2018-05-24T04:42:23.063Z,1272.00
2018-05-24T04:43:23.041Z,1332.00
2018-05-24T04:44:23.001Z,1388.00
2018-05-24T04:45:22.990Z,1420.00
2018-05-24T04:46:22.932Z,1488.00
2018-05-24T04:47:22.898Z,1556.00
2018-05-24T04:48:22.864Z,1668.00
2018-05-24T04:49:22.831Z,1744.00
2018-05-24T04:50:22.799Z,1792.00
2018-05-24T04:51:22.771Z,1832.00
2018-05-24T04:52:22.732Z,1872.00
2018-05-24T04:53:22.703Z,1904.00
2018-05-24T04:54:22.660Z,1944.00
2018-05-24T04:55:22.628Z,1972.00
2018-05-24T04:56:22.593Z,1996.00
2018-05-24T04:57:22.562Z,2028.00
2018-05-24T04:58:22.534Z,2060.00
2018-05-24T04:59:22.499Z,2096.00
2018-05-24T05:00:22.462Z,2128.00
2018-05-24T05:01:22.430Z,2156.00
2018-05-24T05:02:22.408Z,2176.00
2018-05-24T05:03:22.367Z,2188.00
2018-05-24T05:04:22.329Z,2212.00
2018-05-24T05:05:22.301Z,2236.00
2018-05-24T05:06:22.267Z,2256.00
2018-05-24T05:07:22.233Z,2180.00
2018-05-24T05:08:22.192Z,1896.00
2018-05-24T05:09:22.159Z,1908.00
2018-05-24T05:10:22.132Z,1712.00
2018-05-24T05:11:22.098Z,1556.00
2018-05-24T05:12:22.065Z,1476.00
2018-05-24T05:13:22.044Z,1456.00
2018-05-24T05:14:21.994Z,1504.00
2018-05-24T05:15:21.963Z,1504.00
2018-05-24T05:16:21.932Z,1476.00
2018-05-24T05:17:21.901Z,1420.00
2018-05-24T05:18:21.868Z,1388.00
2018-05-24T05:19:21.841Z,1432.00
2018-05-24T05:20:21.798Z,1412.00
2018-05-24T05:21:21.764Z,1432.00
2018-05-24T05:22:21.735Z,1524.00
2018-05-24T05:23:21.782Z,1492.00
2018-05-24T05:24:21.670Z,1632.00
2018-05-24T05:25:21.637Z,1760.00
2018-05-24T05:26:21.597Z,1672.00
2018-05-24T05:27:21.566Z,1536.00
2018-05-24T05:28:21.531Z,1488.00
2018-05-24T05:29:21.492Z,1792.00
2018-05-24T05:30:21.470Z,1744.00
2018-05-24T05:31:21.437Z,1720.00
2018-05-24T05:32:21.398Z,1864.00
2018-05-24T05:33:21.363Z,2088.00
2018-05-24T05:34:21.336Z,2240.00
2018-05-24T05:35:21.312Z,2160.00
2018-05-24T05:36:21.272Z,2356.00
2018-05-24T05:37:21.235Z,2392.00
2018-05-24T05:38:21.241Z,2396.00
2018-05-24T05:39:21.167Z,2280.00
2018-05-24T05:40:21.133Z,2432.00
2018-05-24T05:41:21.094Z,2644.00
2018-05-24T05:42:21.071Z,2740.00
2018-05-24T05:43:21.033Z,2824.00
2018-05-24T05:44:21.000Z,2784.00
2018-05-24T05:45:20.970Z,2500.00
2018-05-24T05:46:20.930Z,2020.00
2018-05-24T05:47:20.898Z,2796.00
2018-05-24T05:48:20.867Z,2908.00
2018-05-24T05:49:20.835Z,3224.00
2018-05-24T05:50:20.798Z,3292.00
2018-05-24T05:51:20.767Z,3112.00
2018-05-24T05:52:20.738Z,3444.00
2018-05-24T05:53:20.696Z,3416.00
2018-05-24T05:54:20.675Z,3552.00
2018-05-24T05:55:20.638Z,3140.00
2018-05-24T05:56:20.604Z,3516.00
2018-05-24T05:57:20.572Z,3112.00
2018-05-24T05:58:20.536Z,2572.00
2018-05-24T05:59:20.502Z,3120.00
2018-05-24T06:00:20.469Z,2784.00
2018-05-24T06:01:20.434Z,3220.00
2018-05-24T06:02:20.409Z,3616.00
2018-05-24T06:03:20.374Z,3728.00
2018-05-24T06:04:20.341Z,3744.00
2018-05-24T06:05:20.304Z,3720.00
2018-05-24T06:06:20.278Z,3720.00
2018-05-24T06:07:20.248Z,3740.00
2018-05-24T06:08:20.211Z,3772.00
2018-05-24T06:09:20.183Z,3796.00
2018-05-24T06:10:20.142Z,3808.00
2018-05-24T06:11:20.110Z,3824.00
2018-05-24T06:12:20.080Z,3732.00
2018-05-24T06:13:20.039Z,2964.00
2018-05-24T06:14:20.017Z,3152.00
2018-05-24T06:15:19.993Z,3188.00
2018-05-24T06:16:19.952Z,3524.00
2018-05-24T06:17:19.922Z,2668.00
2018-05-24T06:18:19.880Z,2596.00
2018-05-24T06:19:19.850Z,2520.00
2018-05-24T06:20:19.821Z,2576.00
2018-05-24T06:21:19.788Z,2496.00
2018-05-24T06:22:19.748Z,2520.00
2018-05-24T06:23:19.720Z,2592.00
2018-05-24T06:24:19.685Z,2700.00
2018-05-24T06:25:19.652Z,3028.00
2018-05-24T06:26:19.624Z,2956.00
2018-05-24T06:27:19.592Z,3024.00
2018-05-24T06:28:19.600Z,3160.00
2018-05-24T06:29:19.528Z,3280.00
2018-05-24T06:30:19.493Z,3696.00
2018-05-24T06:31:19.456Z,4500.00
2018-05-24T06:32:19.427Z,4632.00
2018-05-24T06:33:19.388Z,4784.00
2018-05-24T06:34:19.363Z,4776.00
2018-05-24T06:35:19.329Z,4720.00
2018-05-24T06:36:19.296Z,4616.00
2018-05-24T06:37:19.276Z,4568.00
2018-05-24T06:38:19.234Z,4528.00
2018-05-24T06:39:19.206Z,4352.00
2018-05-24T06:40:19.167Z,4168.00
2018-05-24T06:41:19.137Z,4244.00
2018-05-24T06:42:19.099Z,4020.00
2018-05-24T06:43:19.069Z,4052.00
2018-05-24T06:44:19.036Z,4196.00
2018-05-24T06:45:19.001Z,3852.00
2018-05-24T06:46:18.978Z,4232.00
2018-05-24T06:47:18.944Z,4276.00
2018-05-24T06:48:18.910Z,4348.00
2018-05-24T06:49:18.880Z,4500.00
2018-05-24T06:50:18.844Z,4508.00
2018-05-24T06:51:18.811Z,4468.00
2018-05-24T06:52:18.783Z,4512.00
2018-05-24T06:53:18.753Z,4500.00
2018-05-24T06:54:18.714Z,4516.00
2018-05-24T06:55:18.681Z,4504.00
2018-05-24T06:56:18.659Z,4492.00
2018-05-24T06:57:18.619Z,4420.00
2018-05-24T06:58:18.590Z,4300.00
2018-05-24T06:59:18.557Z,4224.00
2018-05-24T07:00:18.532Z,4224.00
2018-05-24T07:01:18.496Z,4208.00
2018-05-24T07:02:18.464Z,4192.00
2018-05-24T07:03:18.431Z,4256.00
2018-05-24T07:04:18.400Z,4208.00
2018-05-24T07:05:18.367Z,4188.00
2018-05-24T07:06:18.331Z,4060.00
2018-05-24T07:07:18.303Z,4156.00
2018-05-24T07:08:18.271Z,4320.00
2018-05-24T07:09:18.240Z,4388.00
2018-05-24T07:10:18.204Z,4488.00
2018-05-24T07:11:18.178Z,4472.00
2018-05-24T07:12:18.143Z,4520.00
2018-05-24T07:13:18.106Z,4544.00
2018-05-24T07:14:18.087Z,4612.00
2018-05-24T07:15:18.052Z,4648.00
2018-05-24T07:16:18.019Z,4700.00
2018-05-24T07:17:17.987Z,4756.00
2018-05-24T07:18:17.952Z,4780.00
2018-05-24T07:19:17.937Z,4788.00
2018-05-24T07:20:17.895Z,4756.00
2018-05-24T07:21:17.858Z,4752.00
2018-05-24T07:22:17.834Z,4980.00
2018-05-24T07:23:17.799Z,5020.00
2018-05-24T07:24:17.765Z,5060.00
2018-05-24T07:25:17.732Z,5108.00
2018-05-24T07:26:17.707Z,5188.00
2018-05-24T07:27:17.673Z,5136.00
2018-05-24T07:28:17.644Z,4484.00
2018-05-24T07:29:17.613Z,4720.00
2018-05-24T07:30:17.577Z,5312.00
2018-05-24T07:31:17.557Z,5436.00
2018-05-24T07:32:17.518Z,5496.00
2018-05-24T07:33:17.483Z,5448.00
2018-05-24T07:34:17.464Z,5292.00
2018-05-24T07:35:17.428Z,4656.00
2018-05-24T07:36:17.393Z,4548.00
2018-05-24T07:37:17.439Z,5368.00
2018-05-24T07:38:17.322Z,5464.00
2018-05-24T07:39:17.299Z,5184.00
2018-05-24T07:40:17.271Z,5104.00
2018-05-24T07:41:17.237Z,4928.00
2018-05-24T07:42:17.205Z,4724.00
2018-05-24T07:43:17.174Z,4668.00
2018-05-24T07:44:17.144Z,4744.00
2018-05-24T07:45:17.113Z,4732.00
2018-05-24T07:46:17.088Z,4756.00
2018-05-24T07:47:17.054Z,4836.00
2018-05-24T07:48:17.025Z,4864.00
2018-05-24T07:49:16.992Z,4868.00
2018-05-24T07:50:16.956Z,5076.00
2018-05-24T07:51:16.928Z,4728.00
2018-05-24T07:52:16.899Z,5340.00
2018-05-24T07:53:16.865Z,5420.00
2018-05-24T07:54:16.839Z,5264.00
2018-05-24T07:55:16.811Z,4680.00
2018-05-24T07:56:16.781Z,4076.00
2018-05-24T07:57:16.742Z,3960.00
2018-05-24T07:58:16.718Z,4204.00
2018-05-24T07:59:16.688Z,4588.00
2018-05-24T08:00:16.658Z,4784.00
2018-05-24T08:01:16.627Z,4860.00
2018-05-24T08:02:16.593Z,5236.00
2018-05-24T08:03:16.570Z,5700.00
2018-05-24T08:04:16.531Z,5748.00
2018-05-24T08:05:16.499Z,5320.00
2018-05-24T08:06:16.473Z,5020.00
2018-05-24T08:07:16.441Z,5104.00
2018-05-24T08:08:16.412Z,5336.00
2018-05-24T08:09:16.384Z,5660.00
2018-05-24T08:10:16.347Z,5152.00
2018-05-24T08:11:16.319Z,5556.00
2018-05-24T08:12:16.293Z,4832.00
2018-05-24T08:13:16.259Z,4540.00
2018-05-24T08:14:16.227Z,4420.00
2018-05-24T08:15:16.195Z,4700.00
2018-05-24T08:16:16.168Z,4676.00
2018-05-24T08:17:16.133Z,5212.00
2018-05-24T08:18:16.109Z,5160.00
2018-05-24T08:19:16.076Z,4748.00
2018-05-24T08:20:16.048Z,4644.00
2018-05-24T08:21:16.018Z,4260.00
2018-05-24T08:22:15.979Z,4548.00
2018-05-24T08:23:15.953Z,5384.00
2018-05-24T08:24:15.926Z,5200.00
2018-05-24T08:25:15.891Z,4912.00
2018-05-24T08:26:15.868Z,5256.00
2018-05-24T08:27:15.838Z,5472.00
2018-05-24T08:28:15.879Z,5396.00
2018-05-24T08:29:15.771Z,5024.00
2018-05-24T08:30:15.745Z,5072.00
2018-05-24T08:31:15.715Z,5652.00
2018-05-24T08:32:15.689Z,5348.00
2018-05-24T08:33:15.653Z,5104.00
2018-05-24T08:34:15.616Z,4828.00
2018-05-24T08:35:15.599Z,4892.00
2018-05-24T08:36:15.560Z,4868.00
2018-05-24T08:37:15.527Z,4740.00
2018-05-24T08:38:15.503Z,4736.00
2018-05-24T08:39:15.474Z,4724.00
2018-05-24T08:40:15.443Z,4632.00
2018-05-24T08:41:15.422Z,4648.00
2018-05-24T08:42:15.381Z,4604.00
2018-05-24T08:43:15.348Z,4528.00
2018-05-24T08:44:15.323Z,4496.00
2018-05-24T08:45:15.293Z,4532.00
2018-05-24T08:46:15.260Z,4492.00
2018-05-24T08:47:15.231Z,4488.00
2018-05-24T08:48:15.201Z,4484.00
2018-05-24T08:49:15.165Z,4496.00
2018-05-24T08:50:15.143Z,4472.00
2018-05-24T08:51:15.115Z,4456.00
2018-05-24T08:52:15.082Z,4512.00
2018-05-24T08:53:15.099Z,4532.00
2018-05-24T08:54:15.024Z,4548.00
2018-05-24T08:55:14.990Z,4536.00
2018-05-24T08:56:14.960Z,4556.00
2018-05-24T08:57:14.927Z,4560.00
2018-05-24T08:58:14.904Z,4588.00
2018-05-24T08:59:14.873Z,4612.00
2018-05-24T09:00:14.842Z,4568.00
2018-05-24T09:01:14.812Z,4608.00
2018-05-24T09:02:14.785Z,4568.00
2018-05-24T09:03:14.752Z,4660.00
2018-05-24T09:04:14.725Z,4668.00
2018-05-24T09:05:14.697Z,4572.00
2018-05-24T09:06:14.662Z,3524.00
2018-05-24T09:07:14.635Z,3664.00
2018-05-24T09:08:14.603Z,4356.00
2018-05-24T09:09:14.574Z,4192.00
2018-05-24T09:10:14.547Z,4796.00
2018-05-24T09:11:14.516Z,4908.00
2018-05-24T09:12:14.488Z,4596.00
2018-05-24T09:13:14.467Z,4332.00
2018-05-24T09:14:14.425Z,4196.00
2018-05-24T09:15:14.394Z,4052.00
2018-05-24T09:16:14.403Z,4392.00
2018-05-24T09:17:14.337Z,4264.00
2018-05-24T09:18:14.304Z,3780.00
2018-05-24T09:19:14.284Z,3660.00
2018-05-24T09:20:14.311Z,4460.00
2018-05-24T09:21:14.214Z,3580.00
2018-05-24T09:22:14.190Z,3236.00
2018-05-24T09:23:14.157Z,3228.00
2018-05-24T09:24:14.128Z,3448.00
2018-05-24T09:25:14.097Z,3708.00
2018-05-24T09:26:14.061Z,3940.00
2018-05-24T09:27:14.036Z,3948.00
2018-05-24T09:28:14.004Z,4204.00
2018-05-24T09:29:13.969Z,4184.00
2018-05-24T09:30:13.954Z,4052.00
2018-05-24T09:31:13.923Z,4220.00
2018-05-24T09:32:13.891Z,4084.00
2018-05-24T09:33:13.854Z,4324.00
2018-05-24T09:34:13.827Z,4340.00
2018-05-24T09:35:13.796Z,4264.00
2018-05-24T09:36:13.857Z,4512.00
2018-05-24T09:37:13.742Z,4116.00
2018-05-24T09:38:13.702Z,4308.00
2018-05-24T09:39:13.674Z,5236.00
2018-05-24T09:40:13.646Z,4420.00
2018-05-24T09:41:13.628Z,4140.00
2018-05-24T09:42:13.638Z,3836.00
2018-05-24T09:43:13.560Z,3788.00
2018-05-24T09:44:13.527Z,3960.00
2018-05-24T09:45:13.498Z,4328.00
2018-05-24T09:46:13.464Z,4900.00
2018-05-24T09:47:13.437Z,4652.00
2018-05-24T09:48:13.407Z,4804.00
2018-05-24T09:49:13.380Z,4632.00
2018-05-24T09:50:13.363Z,4516.00
2018-05-24T09:51:13.320Z,4780.00
2018-05-24T09:52:13.289Z,4548.00
2018-05-24T09:53:13.258Z,4492.00
2018-05-24T09:54:13.231Z,4664.00
2018-05-24T09:55:13.205Z,4364.00
2018-05-24T09:56:13.172Z,4080.00
2018-05-24T09:57:13.144Z,4360.00
2018-05-24T09:58:13.109Z,4676.00
2018-05-24T09:59:13.080Z,5180.00
2018-05-24T10:00:13.051Z,4920.00
2018-05-24T10:01:13.016Z,6396.00
2018-05-24T10:02:12.997Z,4992.00
2018-05-24T10:03:12.965Z,5028.00
2018-05-24T10:04:12.939Z,5204.00
2018-05-24T10:05:12.902Z,5284.00
2018-05-24T10:06:12.877Z,4572.00
2018-05-24T10:07:12.848Z,4152.00
2018-05-24T10:08:12.818Z,4764.00
2018-05-24T10:09:12.791Z,4044.00
2018-05-24T10:10:12.755Z,4384.00
2018-05-24T10:11:12.727Z,4124.00
2018-05-24T10:12:12.698Z,3888.00
2018-05-24T10:13:12.668Z,4056.00
2018-05-24T10:14:12.641Z,4164.00
2018-05-24T10:15:12.609Z,4236.00
2018-05-24T10:16:12.674Z,4148.00
2018-05-24T10:17:12.555Z,4128.00
2018-05-24T10:18:12.520Z,4000.00
2018-05-24T10:19:12.491Z,3908.00
2018-05-24T10:20:12.464Z,4136.00
2018-05-24T10:21:12.439Z,4152.00
2018-05-24T10:22:12.404Z,4212.00
2018-05-24T10:23:12.375Z,4368.00
2018-05-24T10:24:12.347Z,4164.00
2018-05-24T10:25:12.315Z,3916.00
2018-05-24T10:26:12.300Z,3888.00
2018-05-24T10:27:12.263Z,3868.00
2018-05-24T10:28:12.238Z,4176.00
2018-05-24T10:29:12.203Z,4736.00
2018-05-24T10:30:12.166Z,5536.00
2018-05-24T10:31:12.140Z,6696.00
2018-05-24T10:32:12.113Z,5444.00
2018-05-24T10:33:12.084Z,5312.00
2018-05-24T10:34:12.056Z,5392.00
2018-05-24T10:35:12.026Z,5700.00
2018-05-24T10:36:11.995Z,5880.00
2018-05-24T10:37:11.961Z,7200.00
2018-05-24T10:38:11.941Z,6560.00
2018-05-24T10:39:11.909Z,6264.00
2018-05-24T10:40:11.880Z,6304.00
2018-05-24T10:41:11.850Z,6356.00
2018-05-24T10:42:11.822Z,5948.00
2018-05-24T10:43:11.793Z,5660.00
2018-05-24T10:44:11.760Z,5300.00
2018-05-24T10:45:11.734Z,5000.00
2018-05-24T10:46:11.708Z,4624.00
2018-05-24T10:47:11.677Z,4476.00
2018-05-24T10:48:11.651Z,4464.00
2018-05-24T10:49:11.621Z,4332.00
2018-05-24T10:50:11.581Z,4176.00
2018-05-24T10:51:11.625Z,4084.00
2018-05-24T10:52:11.531Z,3764.00
2018-05-24T10:53:11.502Z,3692.00
2018-05-24T10:54:11.557Z,3660.00
2018-05-24T10:55:11.441Z,3608.00
2018-05-24T10:56:11.413Z,3708.00
2018-05-24T10:57:11.381Z,3664.00
2018-05-24T10:58:11.359Z,3688.00
2018-05-24T10:59:11.336Z,3640.00
2018-05-24T11:00:11.299Z,3740.00
2018-05-24T11:01:11.268Z,3988.00
2018-05-24T11:02:11.236Z,4312.00
2018-05-24T11:03:11.299Z,4540.00
2018-05-24T11:04:11.185Z,4632.00
2018-05-24T11:05:11.149Z,4636.00
2018-05-24T11:06:11.122Z,4532.00
2018-05-24T11:07:11.092Z,4436.00
2018-05-24T11:08:11.060Z,4264.00
2018-05-24T11:09:11.030Z,4112.00
2018-05-24T11:10:11.005Z,3944.00
2018-05-24T11:11:10.975Z,3760.00
2018-05-24T11:12:10.965Z,3588.00
2018-05-24T11:13:10.923Z,3508.00
2018-05-24T11:14:10.882Z,3464.00
2018-05-24T11:15:10.856Z,3256.00
2018-05-24T11:16:10.827Z,3172.00
2018-05-24T11:17:10.794Z,3184.00
2018-05-24T11:18:10.769Z,3224.00
2018-05-24T11:19:10.740Z,3284.00
2018-05-24T11:20:10.709Z,3396.00
2018-05-24T11:21:10.690Z,3572.00
2018-05-24T11:22:10.648Z,3772.00
2018-05-24T11:23:10.621Z,3840.00
2018-05-24T11:24:10.592Z,3916.00
2018-05-24T11:25:10.615Z,3928.00
2018-05-24T11:26:10.530Z,4060.00
2018-05-24T11:27:10.502Z,4168.00
2018-05-24T11:28:10.470Z,4072.00
2018-05-24T11:29:10.440Z,4020.00
2018-05-24T11:30:10.414Z,3896.00
2018-05-24T11:31:10.387Z,3816.00
2018-05-24T11:32:10.407Z,3824.00
2018-05-24T11:33:10.324Z,3760.00
2018-05-24T11:34:10.292Z,3672.00
2018-05-24T11:35:10.263Z,3548.00
2018-05-24T11:36:10.238Z,3412.00
2018-05-24T11:37:10.217Z,3276.00
2018-05-24T11:38:10.177Z,3216.00
2018-05-24T11:39:10.153Z,3328.00
2018-05-24T11:40:10.115Z,3448.00
2018-05-24T11:41:10.086Z,3584.00
2018-05-24T11:42:10.058Z,3708.00
2018-05-24T11:43:10.051Z,3768.00
2018-05-24T11:44:10.002Z,3788.00
2018-05-24T11:45:09.970Z,3860.00
2018-05-24T11:46:09.941Z,3948.00
2018-05-24T11:47:09.905Z,4012.00
2018-05-24T11:48:09.873Z,4016.00
2018-05-24T11:49:09.845Z,4076.00
2018-05-24T11:50:09.821Z,4220.00
2018-05-24T11:51:09.791Z,4360.00
2018-05-24T11:52:09.763Z,4460.00
2018-05-24T11:53:09.729Z,4564.00
2018-05-24T11:54:09.700Z,4600.00
2018-05-24T11:55:09.669Z,4640.00
2018-05-24T11:56:09.644Z,4772.00
2018-05-24T11:57:09.611Z,4932.00
2018-05-24T11:58:09.579Z,5144.00
2018-05-24T11:59:09.547Z,5208.00
2018-05-24T12:00:09.524Z,6460.00
2018-05-24T12:01:09.492Z,6200.00
2018-05-24T12:02:09.462Z,5560.00
2018-05-24T12:03:09.444Z,5632.00
2018-05-24T12:04:09.404Z,5764.00
2018-05-24T12:05:09.373Z,5820.00
2018-05-24T12:06:09.354Z,5776.00
2018-05-24T12:07:09.385Z,5640.00
2018-05-24T12:08:09.286Z,5548.00
2018-05-24T12:09:09.255Z,5500.00
2018-05-24T12:10:09.229Z,5528.00
2018-05-24T12:11:09.197Z,5532.00
2018-05-24T12:12:09.159Z,5472.00
2018-05-24T12:13:09.133Z,5496.00
2018-05-24T12:14:09.106Z,5592.00
2018-05-24T12:15:09.134Z,5708.00
2018-05-24T12:16:09.050Z,5760.00
2018-05-24T12:17:09.018Z,5748.00
2018-05-24T12:18:08.987Z,5668.00
2018-05-24T12:19:08.954Z,5376.00
2018-05-24T12:20:08.925Z,5264.00
2018-05-24T12:21:08.908Z,5392.00
2018-05-24T12:22:08.870Z,5084.00
2018-05-24T12:23:08.844Z,4848.00
2018-05-24T12:24:08.814Z,4672.00
2018-05-24T12:25:08.785Z,4752.00
2018-05-24T12:26:08.752Z,4636.00